Time;durP1;ratioP1;P1;durP2;ratioP2;P2;SDS_P1;SDS_P2;PMS_P1;PMS_P2;Temp;Humidity;BMP_temperature;BMP_pressure;BME280_temperature;BME280_humidity;BME280_pressure;Samples;Min_cycle;Max_cycle;Signal;HPM_P1;HPM_P2
2021/03/14 00:00:38;;;;;;;12.65;4.18;;;5.30;99.90;;;;;;4135835;28;20109;-78
2021/03/14 00:02:39;;;;;;;12.23;4.53;;;5.30;99.90;;;;;;4130250;28;20053;-78
2021/03/14 00:04:40;;;;;;;17.98;3.72;;;5.30;99.90;;;;;;4171357;28;20480;-78
2021/03/14 00:06:41;;;;;;;21.27;5.43;;;5.30;99.90;;;;;;4142375;28;20041;-78
2021/03/14 00:08:42;;;;;;;12.10;3.72;;;5.30;99.90;;;;;;4138474;28;20026;-78
2021/03/14 00:10:46;;;;;;;17.52;5.10;;;5.40;99.90;;;;;;4140939;28;20108;-78
2021/03/14 00:12:47;;;;;;;14.05;4.53;;;5.40;99.90;;;;;;4136491;28;20084;-77
2021/03/14 00:14:47;;;;;;;9.02;3.95;;;5.40;99.90;;;;;;4143081;28;20026;-77
2021/03/14 00:16:48;;;;;;;12.65;4.00;;;5.50;99.90;;;;;;4141137;28;20041;-77
2021/03/14 00:18:49;;;;;;;13.00;4.15;;;5.60;99.90;;;;;;4141312;28;20052;-77
2021/03/14 00:20:50;;;;;;;15.50;4.88;;;5.50;99.90;;;;;;4140800;28;20034;-78
2021/03/14 00:22:51;;;;;;;13.27;4.20;;;5.60;99.90;;;;;;4139678;28;20041;-79
2021/03/14 00:24:51;;;;;;;14.80;3.85;;;5.60;99.90;;;;;;4143194;28;20044;-78
2021/03/14 00:26:52;;;;;;;25.92;5.00;;;5.60;99.90;;;;;;4141700;28;20409;-77
2021/03/14 00:28:53;;;;;;;14.95;4.30;;;5.60;99.90;;;;;;4140228;28;20037;-78
2021/03/14 00:30:54;;;;;;;12.77;4.18;;;5.60;99.90;;;;;;4169501;28;20037;-78
2021/03/14 00:32:55;;;;;;;14.45;4.22;;;5.60;99.90;;;;;;4140431;28;20034;-78
2021/03/14 00:34:56;;;;;;;18.15;5.68;;;5.60;99.90;;;;;;4138350;28;20088;-78
2021/03/14 00:36:57;;;;;;;12.60;4.15;;;5.60;99.90;;;;;;4137654;28;20038;-78
2021/03/14 00:38:58;;;;;;;20.63;5.40;;;5.60;99.90;;;;;;4139631;28;20501;-78
2021/03/14 00:40:58;;;;;;;21.80;5.13;;;5.60;99.90;;;;;;4141287;28;20117;-78
2021/03/14 00:43:01;;;;;;;14.15;5.10;;;5.60;99.90;;;;;;4135157;28;20057;-77
2021/03/14 00:45:06;;;;;;;18.02;5.50;;;5.60;99.90;;;;;;4143042;28;20084;-77
2021/03/14 00:47:07;;;;;;;18.35;5.30;;;5.70;99.90;;;;;;4142724;28;20034;-78
2021/03/14 00:49:14;;;;;;;18.35;4.78;;;5.70;99.90;;;;;;4142024;28;20415;-77
2021/03/14 00:51:15;;;;;;;15.23;5.18;;;5.70;99.90;;;;;;4141459;28;20034;-77
2021/03/14 00:53:15;;;;;;;17.20;6.10;;;5.70;99.90;;;;;;4141794;28;20041;-78
2021/03/14 00:55:16;;;;;;;16.85;5.40;;;5.70;99.90;;;;;;4141959;28;20026;-78
2021/03/14 00:57:17;;;;;;;14.23;4.90;;;5.70;99.90;;;;;;4141014;28;20045;-78
2021/03/14 00:59:18;;;;;;;15.27;7.18;;;5.70;99.90;;;;;;4140892;28;20037;-77
2021/03/14 01:01:18;;;;;;;13.38;4.20;;;5.80;99.90;;;;;;4143392;28;20072;-77
2021/03/14 01:03:19;;;;;;;15.00;5.63;;;5.70;99.90;;;;;;4136464;28;20022;-77
2021/03/14 01:05:21;;;;;;;14.73;5.90;;;5.70;99.90;;;;;;4146335;28;20544;-78
2021/03/14 01:07:22;;;;;;;18.95;4.45;;;5.70;99.90;;;;;;4142641;28;20084;-77
2021/03/14 01:09:22;;;;;;;15.30;4.43;;;5.70;99.90;;;;;;4168621;28;20033;-79
2021/03/14 01:11:24;;;;;;;15.05;4.82;;;5.70;99.90;;;;;;4142456;28;20103;-79
2021/03/14 01:13:25;;;;;;;19.48;4.53;;;5.70;99.90;;;;;;4146930;28;20113;-78
2021/03/14 01:15:25;;;;;;;10.63;4.43;;;5.70;99.90;;;;;;4144778;28;20026;-78
2021/03/14 01:17:26;;;;;;;14.63;3.75;;;5.80;99.90;;;;;;4146424;28;20030;-78
2021/03/14 01:19:27;;;;;;;14.85;4.18;;;5.80;99.90;;;;;;4144594;28;20026;-78
2021/03/14 01:21:28;;;;;;;13.48;5.07;;;5.90;99.90;;;;;;4136355;28;20033;-78
2021/03/14 01:23:28;;;;;;;12.20;4.00;;;5.90;99.90;;;;;;4140402;28;20077;-77
2021/03/14 01:25:29;;;;;;;7.40;4.20;;;5.80;99.90;;;;;;4135016;28;20148;-77
2021/03/14 01:27:30;;;;;;;8.73;3.88;;;5.70;99.90;;;;;;4144918;28;20034;-78
2021/03/14 01:29:30;;;;;;;13.20;3.92;;;5.80;99.90;;;;;;4142231;28;20040;-78
2021/03/14 01:31:31;;;;;;;13.93;3.85;;;5.70;99.90;;;;;;4138924;28;20037;-77
2021/03/14 01:33:32;;;;;;;16.02;4.60;;;5.70;99.90;;;;;;4145883;28;20508;-78
2021/03/14 01:35:33;;;;;;;14.05;4.25;;;5.70;99.90;;;;;;4139316;28;20030;-77
2021/03/14 01:37:34;;;;;;;13.07;4.30;;;5.70;99.90;;;;;;4134327;28;20057;-78
2021/03/14 01:39:34;;;;;;;14.75;5.03;;;5.80;99.90;;;;;;4144364;28;20121;-78
2021/03/14 01:41:35;;;;;;;13.65;4.65;;;5.80;99.90;;;;;;4133969;28;20164;-77
2021/03/14 01:43:36;;;;;;;14.88;4.25;;;5.80;99.90;;;;;;4144627;28;20034;-77
2021/03/14 01:45:37;;;;;;;18.17;6.47;;;5.80;99.90;;;;;;4134134;28;20134;-77
2021/03/14 01:47:40;;;;;;;23.20;5.53;;;5.80;99.90;;;;;;4144476;28;20022;-78
2021/03/14 01:49:41;;;;;;;19.13;4.63;;;5.70;99.90;;;;;;4140684;28;20038;-78
2021/03/14 01:51:42;;;;;;;16.25;4.07;;;5.70;99.90;;;;;;4135692;28;20069;-77
2021/03/14 01:53:43;;;;;;;13.88;3.75;;;5.60;99.90;;;;;;4144284;28;20368;-77
2021/03/14 01:55:44;;;;;;;10.65;4.32;;;5.60;99.90;;;;;;4137938;28;20045;-78
2021/03/14 01:57:46;;;;;;;15.10;4.60;;;5.60;99.90;;;;;;4143950;28;20543;-77
2021/03/14 01:59:46;;;;;;;17.63;4.45;;;5.60;99.90;;;;;;4143038;28;20065;-78
2021/03/14 02:01:47;;;;;;;11.80;4.00;;;5.60;99.90;;;;;;4137819;28;20037;-78
2021/03/14 02:03:48;;;;;;;12.85;4.20;;;5.60;99.90;;;;;;4135567;28;20544;-78
2021/03/14 02:05:49;;;;;;;12.75;4.07;;;5.70;99.90;;;;;;4145714;28;20038;-78
2021/03/14 02:07:53;;;;;;;13.30;4.22;;;5.70;99.90;;;;;;4143052;28;20042;-78
2021/03/14 02:09:53;;;;;;;12.50;4.65;;;5.60;99.90;;;;;;4137861;28;20070;-78
2021/03/14 02:11:58;;;;;;;21.20;5.07;;;5.60;99.90;;;;;;4139787;28;20064;-78
2021/03/14 02:14:01;;;;;;;11.65;3.75;;;5.60;99.90;;;;;;4142629;28;20026;-78
2021/03/14 02:16:15;;;;;;;15.25;4.80;;;5.60;99.90;;;;;;4145186;28;20131;-78
2021/03/14 02:18:17;;;;;;;14.43;4.65;;;5.60;99.90;;;;;;4141878;28;20026;-77
2021/03/14 02:20:23;;;;;;;10.35;3.45;;;5.70;99.90;;;;;;4137056;28;20080;-77
2021/03/14 02:22:24;;;;;;;15.88;4.57;;;5.70;99.90;;;;;;4143944;28;20113;-78
2021/03/14 02:24:28;;;;;;;17.73;4.13;;;5.70;99.90;;;;;;4135800;28;20057;-79
2021/03/14 02:26:42;;;;;;;12.10;5.45;;;5.60;99.90;;;;;;4168916;28;20021;-77
2021/03/14 02:28:43;;;;;;;14.13;3.97;;;5.60;99.90;;;;;;4140417;28;20733;-78
2021/03/14 02:30:45;;;;;;;13.88;4.25;;;5.50;99.90;;;;;;4145089;28;20033;-78
2021/03/14 02:32:47;;;;;;;18.10;4.47;;;5.40;99.90;;;;;;4137313;28;20516;-77
2021/03/14 02:35:00;;;;;;;20.75;5.35;;;5.40;99.90;;;;;;4148194;28;20033;-78
2021/03/14 02:37:04;;;;;;;12.60;3.80;;;5.40;99.90;;;;;;4136223;28;20045;-78
2021/03/14 02:39:08;;;;;;;17.13;5.10;;;5.40;99.90;;;;;;4140907;28;20107;-77
2021/03/14 02:41:10;;;;;;;16.45;4.88;;;5.30;99.90;;;;;;4173230;28;20036;-78
2021/03/14 02:43:11;;;;;;;17.13;4.55;;;5.40;99.90;;;;;;4158759;28;20511;-77
2021/03/14 02:45:12;;;;;;;17.20;4.90;;;5.40;99.90;;;;;;4134449;28;20034;-78
2021/03/14 02:47:14;;;;;;;14.45;4.07;;;5.40;99.90;;;;;;4141738;28;20389;-78
2021/03/14 02:49:18;;;;;;;16.98;4.85;;;5.30;99.90;;;;;;4141987;28;20033;-77
2021/03/14 02:51:19;;;;;;;17.50;6.57;;;5.30;99.90;;;;;;4135041;28;20037;-77
2021/03/14 02:53:21;;;;;;;21.83;5.25;;;5.30;99.90;;;;;;4143438;28;20042;-79
2021/03/14 02:55:23;;;;;;;21.42;4.57;;;5.30;99.90;;;;;;4152069;28;20705;-78
2021/03/14 02:57:26;;;;;;;18.92;5.63;;;5.30;99.90;;;;;;4143606;28;20044;-78
2021/03/14 02:59:28;;;;;;;18.37;4.43;;;5.30;99.90;;;;;;4144687;28;20410;-78
2021/03/14 03:01:31;;;;;;;15.85;4.47;;;5.30;99.90;;;;;;4139407;28;20272;-78
2021/03/14 03:03:32;;;;;;;19.00;4.93;;;5.20;99.90;;;;;;4134939;28;20045;-78
2021/03/14 03:05:34;;;;;;;12.02;3.97;;;5.20;99.90;;;;;;4145330;28;20034;-78
2021/03/14 03:07:36;;;;;;;14.63;3.47;;;5.10;99.90;;;;;;4144380;28;20048;-79
2021/03/14 03:09:37;;;;;;;16.98;6.03;;;5.10;99.90;;;;;;4137438;28;20061;-78
2021/03/14 03:11:39;;;;;;;20.50;4.40;;;5.00;99.90;;;;;;4144244;28;20034;-78
2021/03/14 03:13:40;;;;;;;18.63;5.35;;;5.00;99.90;;;;;;4143763;28;20034;-79
2021/03/14 03:15:41;;;;;;;20.95;4.63;;;5.00;99.90;;;;;;4142037;28;20034;-77
2021/03/14 03:17:43;;;;;;;11.68;5.50;;;4.90;99.90;;;;;;4141544;28;20021;-78
2021/03/14 03:19:44;;;;;;;17.67;4.75;;;4.90;99.90;;;;;;4141630;28;20034;-78
2021/03/14 03:21:46;;;;;;;15.30;4.18;;;4.90;99.90;;;;;;4142801;28;20041;-79
2021/03/14 03:23:47;;;;;;;19.83;5.50;;;4.90;99.90;;;;;;4144393;28;20041;-78
2021/03/14 03:25:48;;;;;;;18.65;4.40;;;4.90;99.90;;;;;;4134799;28;20098;-78
2021/03/14 03:27:49;;;;;;;13.88;4.75;;;4.90;99.90;;;;;;4144326;28;20026;-78
2021/03/14 03:29:51;;;;;;;18.83;4.72;;;4.90;99.90;;;;;;4140590;28;20034;-78
2021/03/14 03:31:52;;;;;;;14.75;4.25;;;4.90;99.90;;;;;;4141092;28;20092;-78
2021/03/14 03:33:53;;;;;;;14.10;3.58;;;4.90;99.90;;;;;;4144442;28;20441;-78
2021/03/14 03:35:53;;;;;;;17.63;5.13;;;5.00;99.90;;;;;;4137488;28;20038;-79
2021/03/14 03:37:54;;;;;;;14.30;5.05;;;5.00;99.90;;;;;;4131615;28;20030;-78
2021/03/14 03:39:54;;;;;;;22.67;4.80;;;5.00;99.90;;;;;;4140986;28;20509;-78
2021/03/14 03:42:01;;;;;;;17.13;4.90;;;4.90;99.90;;;;;;4134828;28;20034;-77
2021/03/14 03:44:04;;;;;;;16.95;4.90;;;5.00;99.90;;;;;;4140937;28;20042;-77
2021/03/14 03:46:09;;;;;;;18.73;4.95;;;4.90;99.90;;;;;;4144029;28;20121;-78
2021/03/14 03:48:15;;;;;;;14.57;4.80;;;4.90;99.90;;;;;;4142739;28;20414;-77
2021/03/14 03:50:16;;;;;;;12.85;4.68;;;4.80;99.90;;;;;;4135995;28;20029;-78
2021/03/14 03:52:19;;;;;;;22.33;7.10;;;4.80;99.90;;;;;;4143748;28;20037;-77
2021/03/14 03:54:20;;;;;;;13.63;4.35;;;4.70;99.90;;;;;;4142759;28;20029;-78
2021/03/14 03:56:22;;;;;;;16.05;4.57;;;4.70;99.90;;;;;;4143001;28;20184;-77
2021/03/14 03:58:24;;;;;;;13.52;4.47;;;4.70;99.90;;;;;;4138078;28;20535;-77
2021/03/14 04:00:27;;;;;;;15.57;5.65;;;4.70;99.90;;;;;;4141855;28;20026;-78
2021/03/14 04:02:28;;;;;;;11.07;4.45;;;4.70;99.90;;;;;;4140526;28;20037;-78
2021/03/14 04:04:29;;;;;;;15.60;5.47;;;4.70;99.90;;;;;;4175416;28;20025;-78
2021/03/14 04:06:31;;;;;;;10.55;4.53;;;4.70;99.90;;;;;;4133496;28;20037;-78
2021/03/14 04:08:33;;;;;;;21.98;5.25;;;4.70;99.90;;;;;;4142362;28;20030;-77
2021/03/14 04:10:35;;;;;;;15.88;4.40;;;4.70;99.90;;;;;;4142356;28;20029;-77
2021/03/14 04:12:38;;;;;;;15.98;3.90;;;4.70;99.90;;;;;;4137939;28;20066;-78
2021/03/14 04:14:39;;;;;;;17.40;4.93;;;4.70;99.90;;;;;;4143009;28;20022;-78
2021/03/14 04:16:41;;;;;;;14.60;4.53;;;4.80;99.90;;;;;;4142298;28;20052;-78
2021/03/14 04:18:44;;;;;;;13.02;4.43;;;4.90;99.90;;;;;;4143810;28;20071;-78
2021/03/14 04:20:48;;;;;;;17.17;5.25;;;5.00;99.90;;;;;;4144019;28;20037;-77
2021/03/14 04:22:55;;;;;;;21.80;5.82;;;5.00;99.90;;;;;;4141820;28;20111;-78
2021/03/14 04:24:58;;;;;;;13.07;4.03;;;5.00;99.90;;;;;;4143540;28;20393;-78
2021/03/14 04:27:02;;;;;;;20.23;5.22;;;5.10;99.90;;;;;;4135992;28;20030;-78
2021/03/14 04:29:04;;;;;;;16.85;4.80;;;5.10;99.90;;;;;;4141727;28;20038;-78
2021/03/14 04:31:05;;;;;;;15.82;4.57;;;5.10;99.90;;;;;;4135230;28;20395;-78
2021/03/14 04:33:08;;;;;;;14.40;4.53;;;5.10;99.90;;;;;;4142087;28;20038;-77
2021/03/14 04:35:10;;;;;;;19.60;5.15;;;5.10;99.90;;;;;;4147019;28;20044;-77
2021/03/14 04:37:12;;;;;;;24.00;6.65;;;5.10;99.90;;;;;;4141024;28;20401;-78
2021/03/14 04:39:14;;;;;;;13.23;4.25;;;5.10;99.90;;;;;;4146551;28;20045;-78
2021/03/14 04:41:16;;;;;;;17.83;4.47;;;5.00;99.90;;;;;;4146882;28;20068;-78
2021/03/14 04:43:18;;;;;;;13.85;4.20;;;5.00;99.90;;;;;;4140478;28;20109;-77
2021/03/14 04:45:20;;;;;;;18.55;5.28;;;5.10;99.90;;;;;;4143317;28;20497;-78
2021/03/14 04:47:20;;;;;;;25.48;4.45;;;5.10;99.90;;;;;;4143732;28;20030;-77
2021/03/14 04:49:21;;;;;;;20.00;5.50;;;5.00;99.90;;;;;;4152370;28;20554;-77
2021/03/14 04:51:34;;;;;;;19.02;4.25;;;5.10;99.90;;;;;;4145393;28;20037;-78
2021/03/14 04:53:35;;;;;;;15.75;4.68;;;5.10;99.90;;;;;;4143958;28;20478;-78
2021/03/14 04:55:37;;;;;;;17.23;4.00;;;5.10;99.90;;;;;;4147050;28;20041;-80
2021/03/14 04:57:40;;;;;;;10.37;4.33;;;5.10;99.90;;;;;;4146572;28;20026;-77
2021/03/14 04:59:43;;;;;;;23.40;4.50;;;5.10;99.90;;;;;;4147257;28;20383;-78
2021/03/14 05:01:46;;;;;;;23.13;5.25;;;5.10;99.90;;;;;;4145158;28;20057;-77
2021/03/14 05:03:51;;;;;;;22.98;6.05;;;5.10;99.90;;;;;;4146467;28;20033;-78
2021/03/14 05:05:53;;;;;;;22.70;4.60;;;5.10;99.90;;;;;;4145735;28;20034;-77
2021/03/14 05:07:55;;;;;;;13.85;4.55;;;5.10;99.90;;;;;;4138150;28;20125;-78
2021/03/14 05:09:58;;;;;;;15.45;5.00;;;5.20;99.90;;;;;;4145744;28;20033;-78
2021/03/14 05:11:59;;;;;;;19.83;6.57;;;5.10;99.90;;;;;;4146924;28;20126;-78
2021/03/14 05:14:00;;;;;;;15.15;5.28;;;4.90;99.90;;;;;;4144039;28;20401;-78
2021/03/14 05:16:01;;;;;;;8.38;4.60;;;4.80;99.90;;;;;;4147272;28;20033;-78
2021/03/14 05:18:03;;;;;;;9.63;4.57;;;4.80;99.90;;;;;;4135160;28;20027;-78
2021/03/14 05:20:06;;;;;;;8.77;4.72;;;4.70;99.90;;;;;;4137779;28;20046;-78
2021/03/14 05:22:07;;;;;;;8.50;4.40;;;4.60;99.90;;;;;;4146518;28;20042;-78
2021/03/14 05:24:10;;;;;;;11.48;4.32;;;4.60;99.90;;;;;;4143160;28;20034;-79
2021/03/14 05:26:12;;;;;;;4.57;3.95;;;4.60;99.90;;;;;;4145721;28;20444;-79
2021/03/14 05:28:13;;;;;;;12.57;4.57;;;4.50;99.90;;;;;;4146742;28;20117;-77
2021/03/14 05:30:22;;;;;;;11.98;3.95;;;4.40;99.90;;;;;;4157696;28;20038;-78
2021/03/14 05:32:23;;;;;;;5.13;4.05;;;4.50;99.90;;;;;;4138844;28;20037;-78
2021/03/14 05:34:25;;;;;;;10.32;4.15;;;4.40;99.90;;;;;;4142255;28;20034;-78
2021/03/14 05:36:27;;;;;;;7.45;4.55;;;4.40;99.90;;;;;;4145125;28;20050;-78
2021/03/14 05:38:27;;;;;;;7.88;3.97;;;4.40;99.90;;;;;;4146092;28;20038;-78
2021/03/14 05:40:29;;;;;;;7.05;4.45;;;4.40;99.90;;;;;;4146258;28;20366;-78
2021/03/14 05:42:32;;;;;;;8.90;5.10;;;4.40;99.90;;;;;;4144705;28;20435;-78
2021/03/14 05:44:33;;;;;;;9.13;5.68;;;4.60;99.90;;;;;;4138208;28;20037;-78
2021/03/14 05:46:34;;;;;;;11.20;5.75;;;4.60;99.90;;;;;;4144317;28;20033;-78
2021/03/14 05:48:35;;;;;;;8.68;5.95;;;4.60;99.90;;;;;;4143385;28;20481;-78
2021/03/14 05:50:36;;;;;;;16.58;7.40;;;4.60;99.90;;;;;;4165976;28;20041;-78
2021/03/14 05:52:43;;;;;;;11.63;5.72;;;4.50;99.90;;;;;;4144872;28;20422;-79
2021/03/14 05:54:45;;;;;;;9.50;4.28;;;4.50;99.90;;;;;;4145763;28;20038;-78
2021/03/14 05:56:50;;;;;;;7.90;5.55;;;4.50;99.90;;;;;;4146397;28;20121;-78
2021/03/14 05:58:51;;;;;;;6.28;4.47;;;4.60;99.90;;;;;;4139091;28;20026;-78
2021/03/14 06:00:53;;;;;;;15.18;6.28;;;4.50;99.90;;;;;;4142200;28;20060;-78
2021/03/14 06:02:58;;;;;;;9.73;5.30;;;4.50;99.90;;;;;;4139968;28;20121;-78
2021/03/14 06:04:59;;;;;;;11.43;5.10;;;4.50;99.90;;;;;;4142563;28;20122;-78
2021/03/14 06:07:00;;;;;;;12.13;4.95;;;4.50;99.90;;;;;;4143828;28;20026;-78
2021/03/14 06:09:01;;;;;;;8.05;4.38;;;4.50;99.90;;;;;;4142400;28;20036;-78
2021/03/14 06:11:03;;;;;;;8.50;4.07;;;4.40;99.90;;;;;;4140033;28;20129;-77
2021/03/14 06:13:06;;;;;;;13.02;5.15;;;4.40;99.90;;;;;;4138905;28;20033;-79
2021/03/14 06:15:07;;;;;;;11.15;5.93;;;4.40;99.90;;;;;;4143771;28;20553;-78
2021/03/14 06:17:07;;;;;;;13.50;5.10;;;4.40;99.90;;;;;;4141449;28;20121;-78
2021/03/14 06:19:08;;;;;;;9.10;4.32;;;4.50;99.90;;;;;;4165604;28;20045;-78
2021/03/14 06:21:21;;;;;;;8.43;4.82;;;4.60;99.90;;;;;;4142510;28;20041;-79
2021/03/14 06:23:23;;;;;;;7.40;3.83;;;4.60;99.90;;;;;;4142722;28;20561;-77
2021/03/14 06:25:27;;;;;;;13.05;4.63;;;4.70;99.90;;;;;;4145660;28;20524;-78
2021/03/14 06:27:28;;;;;;;;;;;4.70;99.90;;;;;;4144377;28;20041;-78
2021/03/14 06:29:29;;;;;;;9.07;4.10;;;4.70;99.90;;;;;;4145677;28;19921;-78
2021/03/14 06:31:29;;;;;;;8.23;4.50;;;4.80;99.90;;;;;;4137101;28;20405;-78
2021/03/14 06:33:30;;;;;;;11.85;5.32;;;4.80;99.90;;;;;;4165698;28;20025;-78
2021/03/14 06:35:57;;;;;;;9.82;4.40;;;4.80;99.90;;;;;;4140764;28;20052;-79
2021/03/14 06:38:19;;;;;;;13.57;5.85;;;4.70;99.90;;;;;;4143162;28;20515;-78
2021/03/14 06:40:20;;;;;;;15.20;5.15;;;4.70;99.90;;;;;;4159081;28;20315;-78
2021/03/14 06:42:34;;;;;;;14.07;6.57;;;4.70;99.90;;;;;;4141371;28;20159;-78
2021/03/14 06:44:36;;;;;;;11.15;5.85;;;4.70;99.90;;;;;;4141117;28;20044;-79
2021/03/14 06:46:39;;;;;;;13.68;5.38;;;4.80;99.90;;;;;;4145055;28;20049;-78
2021/03/14 06:48:40;;;;;;;13.18;4.80;;;4.80;99.90;;;;;;4145305;28;20077;-79
2021/03/14 06:50:41;;;;;;;9.23;4.80;;;4.80;99.90;;;;;;4143837;28;20042;-79
2021/03/14 06:53:21;;;;;;;10.50;5.82;;;4.80;99.90;;;;;;4145066;28;20511;-79
2021/03/14 06:55:25;;;;;;;9.73;5.32;;;4.90;99.90;;;;;;4141104;28;20045;-79
2021/03/14 06:57:26;;;;;;;10.10;5.03;;;4.90;99.90;;;;;;4141473;28;20037;-78
2021/03/14 06:59:30;;;;;;;13.07;5.57;;;4.90;99.90;;;;;;4170297;28;20523;-78
2021/03/14 07:01:30;;;;;;;15.43;5.65;;;4.90;99.90;;;;;;4143741;28;20096;-78
2021/03/14 07:03:31;;;;;;;10.65;5.68;;;5.00;99.90;;;;;;4137798;28;20026;-80
2021/03/14 07:05:31;;;;;;;11.60;4.82;;;5.10;99.90;;;;;;4143591;28;20034;-78
2021/03/14 07:07:41;;;;;;;15.82;5.78;;;5.20;99.90;;;;;;4143637;28;20041;-78
2021/03/14 07:09:42;;;;;;;11.45;5.20;;;5.30;99.90;;;;;;4132438;28;20026;-78
2021/03/14 07:11:46;;;;;;;12.70;5.70;;;5.30;99.90;;;;;;4136492;28;20109;-78
2021/03/14 07:13:52;;;;;;;14.35;5.30;;;5.30;99.90;;;;;;4164398;28;20499;-78
2021/03/14 07:15:52;;;;;;;14.30;6.50;;;5.30;99.90;;;;;;4142119;28;20025;-79
2021/03/14 07:17:55;;;;;;;12.70;6.45;;;5.40;99.90;;;;;;4139894;28;20560;-78
2021/03/14 07:19:58;;;;;;;13.82;5.57;;;5.40;99.90;;;;;;4142471;28;20534;-79
2021/03/14 07:22:07;;;;;;;13.50;6.40;;;5.40;99.90;;;;;;4137056;28;20074;-79
2021/03/14 07:24:12;;;;;;;12.07;5.32;;;5.40;99.90;;;;;;4142743;28;20057;-79
2021/03/14 07:26:13;;;;;;;14.32;6.80;;;5.40;99.90;;;;;;4142172;28;20138;-79
2021/03/14 07:28:14;;;;;;;16.58;6.20;;;5.40;99.90;;;;;;4136915;28;20042;-79
2021/03/14 07:30:17;;;;;;;14.27;5.68;;;5.40;99.90;;;;;;4142607;28;20108;-79
2021/03/14 07:32:18;;;;;;;21.80;6.55;;;5.40;99.90;;;;;;4141585;28;20424;-77
2021/03/14 07:34:20;;;;;;;14.13;5.65;;;5.40;99.90;;;;;;4142674;28;20030;-78
2021/03/14 07:36:20;;;;;;;16.90;6.00;;;5.50;99.90;;;;;;4142882;28;20025;-78
2021/03/14 07:38:21;;;;;;;15.70;6.20;;;5.50;99.90;;;;;;4141936;28;20129;-78
2021/03/14 07:40:24;;;;;;;12.23;5.78;;;5.60;99.90;;;;;;4139946;28;20041;-78
2021/03/14 07:42:26;;;;;;;10.50;5.47;;;5.80;99.90;;;;;;4134466;28;20470;-79
2021/03/14 07:44:27;;;;;;;13.50;6.55;;;5.90;99.90;;;;;;4140492;28;20041;-77
2021/03/14 07:46:28;;;;;;;16.67;6.80;;;6.00;99.90;;;;;;4139713;28;20152;-77
2021/03/14 07:48:29;;;;;;;12.63;5.35;;;6.00;99.90;;;;;;4139084;28;20034;-77
2021/03/14 07:50:36;;;;;;;15.30;5.82;;;6.10;99.90;;;;;;4166835;28;20040;-78
2021/03/14 07:52:40;;;;;;;12.85;5.82;;;6.10;99.90;;;;;;4140322;28;20046;-77
2021/03/14 07:54:46;;;;;;;13.73;6.18;;;6.20;99.90;;;;;;4134573;28;20120;-77
2021/03/14 07:56:49;;;;;;;16.35;6.47;;;6.30;99.90;;;;;;4141453;28;20057;-77
2021/03/14 07:58:56;;;;;;;18.75;5.85;;;6.40;99.90;;;;;;4165658;28;20759;-77
2021/03/14 08:01:23;;;;;;;14.75;6.03;;;6.50;99.90;;;;;;4170240;28;20033;-77
2021/03/14 08:03:38;;;;;;;12.27;5.80;;;6.50;99.90;;;;;;4139917;28;20125;-77
2021/03/14 08:05:45;;;;;;;19.30;7.20;;;6.60;99.90;;;;;;4142810;28;20503;-77
2021/03/14 08:07:46;;;;;;;20.75;7.32;;;6.80;99.90;;;;;;4141517;28;20068;-77
2021/03/14 08:09:49;;;;;;;16.45;6.30;;;6.70;99.90;;;;;;4171967;28;20029;-77
2021/03/14 08:12:17;;;;;;;14.63;7.10;;;6.70;99.90;;;;;;4166060;28;20176;-77
2021/03/14 08:14:41;;;;;;;20.60;6.53;;;6.60;99.90;;;;;;4141355;28;20018;-77
2021/03/14 08:17:20;;;;;;;11.85;6.05;;;6.70;99.90;;;;;;4139662;28;20042;-79
2021/03/14 08:19:21;;;;;;;15.35;6.72;;;6.70;99.90;;;;;;4158605;28;20026;-76
2021/03/14 08:21:21;;;;;;;23.02;7.47;;;6.80;99.90;;;;;;4168060;28;20041;-77
2021/03/14 08:23:42;;;;;;;12.50;6.05;;;7.00;99.90;;;;;;4139819;28;20138;-77
2021/03/14 08:25:49;;;;;;;12.35;6.00;;;7.20;99.90;;;;;;4138512;28;20393;-79
2021/03/14 08:27:58;;;;;;;13.05;6.45;;;7.30;99.90;;;;;;4142870;28;20030;-78
2021/03/14 08:29:58;;;;;;;12.07;6.85;;;7.40;99.90;;;;;;4143883;28;20042;-78
2021/03/14 08:32:00;;;;;;;12.23;7.47;;;7.40;99.90;;;;;;4139818;28;20038;-77
2021/03/14 08:34:00;;;;;;;14.65;6.68;;;7.50;99.90;;;;;;4170493;28;20025;-77
2021/03/14 08:36:06;;;;;;;12.88;6.43;;;7.40;99.90;;;;;;4140918;28;20124;-77
2021/03/14 08:38:34;;;;;;;15.63;6.47;;;7.50;99.90;;;;;;4135486;28;20043;-77
2021/03/14 08:40:34;;;;;;;20.73;7.47;;;7.60;99.90;;;;;;4166391;28;20033;-77
2021/03/14 08:42:56;;;;;;;16.00;7.65;;;7.50;99.90;;;;;;4137943;28;20087;-78
2021/03/14 08:44:57;;;;;;;23.85;7.20;;;7.50;99.90;;;;;;4131418;28;20514;-78
2021/03/14 08:47:18;;;;;;;17.10;6.50;;;7.50;99.90;;;;;;4141028;28;20045;-78
2021/03/14 08:49:21;;;;;;;20.27;8.00;;;7.70;99.90;;;;;;4140264;28;20386;-78
2021/03/14 08:51:22;;;;;;;13.48;6.55;;;7.70;99.90;;;;;;4141795;28;20038;-77
2021/03/14 08:53:23;;;;;;;21.30;7.20;;;7.70;99.90;;;;;;4151185;28;20041;-79
2021/03/14 08:55:24;;;;;;;16.88;7.80;;;7.70;99.90;;;;;;4146392;28;20034;-78
2021/03/14 08:57:25;;;;;;;18.48;6.97;;;7.70;99.90;;;;;;4152522;28;20045;-77
2021/03/14 08:59:26;;;;;;;17.65;7.28;;;7.70;99.90;;;;;;4149232;28;20055;-78
2021/03/14 09:01:28;;;;;;;13.82;6.78;;;7.70;99.90;;;;;;4134065;28;20076;-79
2021/03/14 09:03:30;;;;;;;15.20;7.20;;;7.70;99.90;;;;;;4140980;28;20721;-79
2021/03/14 09:06:02;;;;;;;19.15;6.82;;;7.70;99.90;;;;;;4139241;28;20118;-80
2021/03/14 09:08:05;;;;;;;14.43;6.57;;;7.80;99.90;;;;;;4135170;28;20058;-81
2021/03/14 09:10:13;;;;;;;14.75;6.10;;;7.90;99.90;;;;;;4135143;28;20117;-80
2021/03/14 09:12:19;;;;;;;16.38;7.43;;;7.80;99.90;;;;;;4142948;28;20131;-82
2021/03/14 09:14:32;;;;;;;22.15;7.63;;;7.90;99.90;;;;;;4141566;28;20022;-80
2021/03/14 09:16:43;;;;;;;11.10;6.88;;;8.10;99.90;;;;;;4141796;28;20389;-80
2021/03/14 09:18:48;;;;;;;10.93;6.63;;;8.20;99.90;;;;;;4138369;28;20534;-79
2021/03/14 09:20:56;;;;;;;16.77;6.13;;;8.20;99.90;;;;;;4144862;28;20018;-78
2021/03/14 09:23:07;;;;;;;9.63;6.75;;;8.20;99.90;;;;;;4141112;28;20097;-80
2021/03/14 09:25:13;;;;;;;14.60;6.82;;;8.30;99.90;;;;;;4139384;28;20026;-79
2021/03/14 09:27:16;;;;;;;13.52;6.90;;;8.30;99.90;;;;;;4138663;28;20034;-78
2021/03/14 09:29:31;;;;;;;;;;;8.40;99.90;;;;;;4143449;28;20030;-79
2021/03/14 09:31:31;;;;;;;13.18;5.00;;;8.50;99.90;;;;;;4144399;28;20428;-79
2021/03/14 09:33:36;;;;;;;16.83;5.95;;;8.60;99.90;;;;;;4142813;28;20148;-79
2021/03/14 09:35:37;;;;;;;19.70;5.32;;;8.60;99.90;;;;;;4135986;28;20030;-79
2021/03/14 09:37:39;;;;;;;8.88;5.47;;;8.60;99.90;;;;;;4135357;28;20089;-78
2021/03/14 09:39:40;;;;;;;14.93;7.45;;;8.70;99.90;;;;;;4141625;28;20047;-78
2021/03/14 09:41:44;;;;;;;8.82;5.60;;;8.70;99.90;;;;;;4145942;28;20038;-79
2021/03/14 09:43:45;;;;;;;13.38;5.28;;;8.80;99.90;;;;;;4141361;28;20038;-79
2021/03/14 09:46:06;;;;;;;12.40;5.95;;;8.90;99.90;;;;;;4141501;28;20125;-78
2021/03/14 09:48:20;;;;;;;9.48;6.07;;;8.80;99.90;;;;;;4133849;28;20080;-79
2021/03/14 09:50:21;;;;;;;16.10;5.95;;;9.00;99.90;;;;;;4133025;28;20077;-78
2021/03/14 09:52:23;;;;;;;21.40;6.07;;;8.80;99.90;;;;;;4149625;28;20042;-78
2021/03/14 09:54:25;;;;;;;14.75;5.82;;;8.80;99.90;;;;;;4145001;28;20030;-79
2021/03/14 09:56:25;;;;;;;16.17;5.85;;;8.90;99.90;;;;;;4155638;28;20640;-77
2021/03/14 09:58:29;;;;;;;13.43;5.32;;;9.20;99.90;;;;;;4145192;28;20030;-78
2021/03/14 10:00:32;;;;;;;8.60;4.90;;;9.10;99.90;;;;;;4145818;28;20113;-78
2021/03/14 10:02:36;;;;;;;;;;;8.90;99.90;;;;;;4173381;28;20107;-78
2021/03/14 10:04:48;;;;;;;9.02;4.07;;;8.60;99.90;;;;;;4169758;28;19959;-78
2021/03/14 10:06:50;;;;;;;15.77;6.25;;;8.30;99.90;;;;;;4144469;28;20038;-79
2021/03/14 10:08:50;;;;;;;11.43;5.32;;;8.30;99.90;;;;;;4166131;28;20037;-79
2021/03/14 10:10:53;;;;;;;14.93;5.03;;;8.30;99.90;;;;;;4140936;28;20079;-78
2021/03/14 10:12:54;;;;;;;11.05;4.10;;;8.40;99.90;;;;;;4141936;28;20112;-80
2021/03/14 10:14:55;;;;;;;12.65;4.70;;;8.40;99.90;;;;;;4145340;28;20081;-79
2021/03/14 10:16:56;;;;;;;11.27;3.60;;;8.90;99.90;;;;;;4134986;28;20034;-78
2021/03/14 10:18:59;;;;;;;9.65;3.67;;;9.20;99.90;;;;;;4164816;28;20072;-78
2021/03/14 10:21:18;;;;;;;;;;;9.50;99.90;;;;;;4141172;28;20034;-78
2021/03/14 10:23:24;;;;;;;8.60;4.00;;;9.70;99.90;;;;;;4147176;28;19914;-79
2021/03/14 10:25:27;;;;;;;11.88;3.97;;;9.70;99.90;;;;;;4143244;28;20773;-78
2021/03/14 10:27:28;;;;;;;8.93;3.75;;;10.00;99.90;;;;;;4157510;28;20029;-77
2021/03/14 10:29:34;;;;;;;4.72;3.17;;;10.10;99.90;;;;;;4139570;28;20117;-78
2021/03/14 10:31:34;;;;;;;3.47;2.38;;;9.50;99.90;;;;;;4141029;28;20034;-78
2021/03/14 10:33:43;;;;;;;3.95;2.70;;;8.90;99.90;;;;;;4145656;28;20121;-78
2021/03/14 10:35:44;;;;;;;11.35;4.45;;;8.40;99.90;;;;;;4140093;28;20152;-78
2021/03/14 10:37:45;;;;;;;8.30;3.15;;;8.20;99.90;;;;;;4137542;28;20034;-80
2021/03/14 10:39:57;;;;;;;5.60;2.70;;;8.00;99.90;;;;;;4143288;28;20121;-78
2021/03/14 10:41:57;;;;;;;3.40;2.40;;;8.20;99.90;;;;;;4143445;28;20041;-79
2021/03/14 10:44:01;;;;;;;8.93;2.95;;;8.80;99.90;;;;;;4172026;28;20060;-79
2021/03/14 10:46:01;;;;;;;;;;;9.60;99.90;;;;;;4145165;28;20060;-78